Pine Galaxy — C6TT5 — position and weather

sailwx.info

Track history (hours):
 
Tides and Currents Weather Stations Pressure Air Temp Water Temp Dewpoint Dewpoint Depression Visibility Wind Speed Wind Dir Waves Ship Positions

Pine Galaxy

Last reported at 2014-Dec-20 00:33 UTC. Time now 2014-Dec-20 00:53 UTC.
Position N 49°17' W 123°04'.

Length 147 m; draft 5.1 m.

Type: Tanker. MMSI: 311772000.

Date/timePositionNaut miles runAvg speedWind from/ knotsBaromVisibWave heightAir tempDewpointWater temp
2014-Dec-20 00:33N 49°17' W 123°04'0 0.0
2014-Dec-19 23:33N 49°17' W 123°04'0 0.0
2014-Dec-19 22:33N 49°17' W 123°04'0 0.0
2014-Dec-19 21:33N 49°17' W 123°04'0 0.0
2014-Dec-19 20:33N 49°17' W 123°04'0 0.0
2014-Dec-19 19:33N 49°17' W 123°04'0 0.0
2014-Dec-19 18:33N 49°17' W 123°04'0 0.0
2014-Dec-19 17:33N 49°17' W 123°04'0 0.0
2014-Dec-19 16:33N 49°17' W 123°04'0 0.0
2014-Dec-19 15:33N 49°17' W 123°04'0 0.0
2014-Dec-19 14:33N 49°17' W 123°04'0 0.0
2014-Dec-19 13:33N 49°17' W 123°04'0 0.0
2014-Dec-19 12:33N 49°17' W 123°04'0 0.0
2014-Dec-19 11:33N 49°17' W 123°04'0 0.0
2014-Dec-19 10:33N 49°17' W 123°04'0 0.0
2014-Dec-19 09:33N 49°17' W 123°04'0 0.0
2014-Dec-19 08:33N 49°17' W 123°04'0 0.0
2014-Dec-19 07:33N 49°17' W 123°04'0 0.0
2014-Dec-19 06:33N 49°17' W 123°04'0 0.0
2014-Dec-19 05:33N 49°17' W 123°04'0 0.0
2014-Dec-19 04:33N 49°17' W 123°04'0 0.0
2014-Dec-19 03:33N 49°17' W 123°04'5 4.5
2014-Dec-19 02:33N 49°19' W 123°11'1 1.4
2014-Dec-19 01:32N 49°17' W 123°11'0 0.0
2014-Dec-19 00:32N 49°17' W 123°11'0 0.0
2014-Dec-18 23:32N 49°17' W 123°11'0 0.0
2014-Dec-18 22:29N 49°17' W 123°11'0 0.0
2014-Dec-18 21:32N 49°17' W 123°11'0 0.0
2014-Dec-18 20:32N 49°17' W 123°11'0 0.0
2014-Dec-18 19:32N 49°17' W 123°11'0 0.0
2014-Dec-18 18:32N 49°17' W 123°11'0 0.0
2014-Dec-18 17:32N 49°17' W 123°11'0 0.0
2014-Dec-18 16:32N 49°17' W 123°11'0 0.0
2014-Dec-18 15:32N 49°17' W 123°11'0 0.0
2014-Dec-18 14:32N 49°17' W 123°11'0 0.0
2014-Dec-18 13:32N 49°17' W 123°11'0 0.0
2014-Dec-18 12:32N 49°17' W 123°11'0 0.1
2014-Dec-18 11:32N 49°18' W 123°11'0 0.0
2014-Dec-18 10:32N 49°18' W 123°11'0 0.0
2014-Dec-18 09:32N 49°17' W 123°11'0 0.0
2014-Dec-18 08:29N 49°18' W 123°11'0 0.0
2014-Dec-18 07:32N 49°17' W 123°11'0 0.0
2014-Dec-18 06:32N 49°17' W 123°11'0 0.0
2014-Dec-18 05:32N 49°17' W 123°11'0 0.1
2014-Dec-18 04:32N 49°17' W 123°11'0 0.1
2014-Dec-18 03:32N 49°18' W 123°11'0 0.1
2014-Dec-18 02:32N 49°17' W 123°11'0 0.0
2014-Dec-18 01:32N 49°17' W 123°11'0 0.0
2014-Dec-18 00:32N 49°17' W 123°11'0 0.0
2014-Dec-17 23:32N 49°17' W 123°11'0 0.0
2014-Dec-17 22:32N 49°17' W 123°11'0 0.0
2014-Dec-17 21:32N 49°17' W 123°11'0 0.0
2014-Dec-17 20:32N 49°17' W 123°11'0 0.1
2014-Dec-17 19:32N 49°17' W 123°11'0 0.0
2014-Dec-17 18:32N 49°17' W 123°11'0 0.0
2014-Dec-17 17:32N 49°17' W 123°11'0 0.0
2014-Dec-17 16:32N 49°17' W 123°11'0 0.0
2014-Dec-17 15:32N 49°17' W 123°11'0 0.1
2014-Dec-17 14:32N 49°18' W 123°11'0 0.0
2014-Dec-17 13:32N 49°18' W 123°11'0 0.0
2014-Dec-17 12:29N 49°18' W 123°11'0 0.0
2014-Dec-17 11:32N 49°18' W 123°11'0 0.0
2014-Dec-17 10:32N 49°17' W 123°11'0 0.1
2014-Dec-17 09:32N 49°17' W 123°11'0 0.0
2014-Dec-17 08:32N 49°17' W 123°11'0 0.0
2014-Dec-17 07:32N 49°17' W 123°11'0 0.1
2014-Dec-17 06:32N 49°17' W 123°11'0 0.1
2014-Dec-17 05:32N 49°17' W 123°11'0 0.0
2014-Dec-17 04:32N 49°17' W 123°11'0 0.0
2014-Dec-17 03:32N 49°17' W 123°11'0 0.0
2014-Dec-17 02:29N 49°17' W 123°11'0 0.0
2014-Dec-17 01:32N 49°17' W 123°11'5 5.1
2014-Dec-17 00:33N 49°16' W 123°19'1312.6
2014-Dec-16 23:33N 49°03' W 123°19'1313.1
2014-Dec-16 22:33N 48°54' W 123°05'10 9.7
2014-Dec-16 21:33N 48°44' W 123°06'10 9.9
2014-Dec-16 20:33N 48°36' W 123°13'1312.5
2014-Dec-16 19:33N 48°23' W 123°14'7 7.1
2014-Dec-16 18:33N 48°20' W 123°24'6 6.2
2014-Dec-16 17:32N 48°14' W 123°28'1010.3
2014-Dec-16 16:33N 48°13' W 123°43'8 8.4
2014-Dec-16 15:33N 48°14' W 123°56'1111.4
2014-Dec-16 14:33N 48°18' W 124°11'1212.2
2014-Dec-16 13:33N 48°24' W 124°28'1212.4
2014-Dec-16 12:33N 48°28' W 124°45'1211.3
2014-Dec-16 11:30N 48°29' W 125°03'1010.0
2014-Dec-16 10:33N 48°31' W 125°17'1010.1
2014-Dec-16 09:33N 48°38' W 125°27'1010.0
2014-Dec-16 08:33N 48°46' W 125°36'9 9.4
2014-Dec-16 07:33N 48°54' W 125°45'10 9.5
2014-Dec-16 06:33N 49°00' W 125°55'9 8.7
2014-Dec-16 05:33N 49°04' W 126°07'9 8.6
2014-Dec-16 04:33N 49°04' W 126°20'7 6.7
2014-Dec-16 03:31N 49°04' W 126°31'6 5.1
2014-Dec-16 02:26N 49°04' W 126°39'10 4.3
2014-Dec-16 00:06N 49°03' W 126°54'2 2.7
2014-Dec-15 23:32N 49°03' W 126°56'9 6.9
2014-Dec-15 22:10N 48°57' W 126°46'610.3
2014-Dec-15 21:33N 48°52' W 126°40'1110.8
2014-Dec-15 20:33N 48°44' W 126°29'1110.8
2014-Dec-15 19:31N 48°33' W 126°23'1010.3
2014-Dec-15 18:31N 48°24' W 126°18'  
2014-Dec-13 09:13N 38°18' W 124°21'6 9.1
2014-Dec-13 08:32N 38°14' W 124°16'9 9.4
2014-Dec-13 07:33N 38°07' W 124°08'10 9.7
2014-Dec-13 06:33N 37°59' W 124°00'1010.0
2014-Dec-13 05:33N 37°52' W 123°52'1110.3
2014-Dec-13 04:28N 37°43' W 123°43'18 8.7
2014-Dec-13 02:26N 37°35' W 123°24'8 9.1
2014-Dec-13 01:33N 37°34' W 123°13'9 8.7
2014-Dec-13 00:33N 37°35' W 123°03'9 9.3
2014-Dec-12 23:33N 37°40' W 122°53'9 9.1
2014-Dec-12 22:34N 37°45' W 122°43'9 8.8
2014-Dec-12 21:33N 37°48' W 122°33'10 9.7
2014-Dec-12 20:33N 37°55' W 122°25'3 2.6
2014-Dec-12 19:33N 37°55' W 122°22'0 0.0
2014-Dec-12 18:33N 37°55' W 122°22'0 0.0
2014-Dec-12 17:33N 37°55' W 122°22'0 0.0
2014-Dec-12 16:33N 37°55' W 122°22'0 0.0
2014-Dec-12 15:33N 37°55' W 122°22'0 0.0
2014-Dec-12 14:33N 37°55' W 122°22'0 0.0
2014-Dec-12 13:33N 37°55' W 122°22'0 0.0
2014-Dec-12 12:33N 37°55' W 122°22'0 0.0
2014-Dec-12 11:33N 37°55' W 122°22'0 0.0
2014-Dec-12 10:33N 37°55' W 122°22'0 0.0
2014-Dec-12 09:33N 37°55' W 122°22'0 0.0
2014-Dec-12 08:33N 37°55' W 122°22'0 0.0
2014-Dec-12 07:33N 37°55' W 122°22'0 0.0
2014-Dec-12 06:33N 37°55' W 122°22'1 0.8
2014-Dec-12 05:33N 37°54' W 122°22'4 3.9
2014-Dec-12 04:33N 37°51' W 122°24'5 5.1
2014-Dec-12 03:32N 37°46' W 122°21'0 0.0
2014-Dec-12 02:32N 37°46' W 122°21'0 0.0
2014-Dec-12 01:32N 37°46' W 122°21'0 0.0
2014-Dec-12 00:32N 37°46' W 122°21'0 0.0
2014-Dec-11 23:32N 37°46' W 122°21'0 0.0
2014-Dec-11 22:32N 37°46' W 122°21'0 0.1
2014-Dec-11 21:32N 37°46' W 122°21'0 0.0
2014-Dec-11 20:32N 37°46' W 122°21'0 0.0
2014-Dec-11 19:32N 37°46' W 122°21'0 0.1
2014-Dec-11 18:32N 37°46' W 122°21'0 0.1
2014-Dec-11 17:32N 37°46' W 122°21'0 0.0
2014-Dec-11 16:32N 37°46' W 122°21'0 0.0
2014-Dec-11 15:32N 37°46' W 122°21'0 0.0
2014-Dec-11 14:32N 37°46' W 122°21'0 0.0
2014-Dec-11 13:32N 37°46' W 122°21'0 0.0
2014-Dec-11 12:33N 37°46' W 122°21'0 0.0
2014-Dec-11 11:33N 37°46' W 122°21'0 0.1
2014-Dec-11 10:33N 37°46' W 122°21'4 4.3
2014-Dec-11 09:33N 37°50' W 122°24'5 4.7
2014-Dec-11 08:33N 37°54' W 122°22'1 0.7
2014-Dec-11 07:31N 37°55' W 122°22'0 0.0
2014-Dec-11 06:28N 37°55' W 122°22'0 0.0
2014-Dec-11 05:31N 37°55' W 122°22'0 0.0
2014-Dec-11 04:31N 37°55' W 122°22'0 0.0
2014-Dec-11 03:31N 37°55' W 122°22'0 0.0
2014-Dec-11 02:28N 37°55' W 122°22'0 0.0
2014-Dec-11 01:31N 37°55' W 122°22'0 0.0
2014-Dec-11 00:31N 37°55' W 122°22'0 0.0
2014-Dec-10 23:31N 37°55' W 122°22'0 0.0
2014-Dec-10 22:31N 37°55' W 122°22'0 0.0
2014-Dec-10 21:31N 37°55' W 122°22'0 0.0
2014-Dec-10 20:31N 37°55' W 122°22'0 0.0
2014-Dec-10 19:31N 37°55' W 122°22'0 0.0
2014-Dec-10 18:28N 37°55' W 122°22'0 0.0
2014-Dec-10 17:31N 37°55' W 122°22'0 0.0
2014-Dec-10 16:31N 37°55' W 122°22'0 0.0
2014-Dec-10 15:31N 37°55' W 122°22'0 0.0
2014-Dec-10 14:28N 37°55' W 122°22'0 0.0
2014-Dec-10 13:31N 37°55' W 122°22'0 0.0
2014-Dec-10 12:31N 37°55' W 122°22'0 0.0
2014-Dec-10 11:31N 37°55' W 122°22'0 0.0
2014-Dec-10 10:31N 37°55' W 122°22'0 0.0
2014-Dec-10 09:31N 37°55' W 122°22'0 0.0
2014-Dec-10 08:31N 37°55' W 122°22'0 0.0
2014-Dec-10 07:31N 37°55' W 122°22'0 0.0
2014-Dec-10 06:31N 37°55' W 122°22'0 0.0
2014-Dec-10 05:31N 37°55' W 122°22'0 0.0
2014-Dec-10 04:31N 37°55' W 122°22'0 0.0
2014-Dec-10 03:31N 37°55' W 122°22'0 0.0
2014-Dec-10 02:31N 37°55' W 122°22'0 0.0
2014-Dec-10 01:31N 37°55' W 122°22'  
Track history (hours):
 
Tides and Currents Weather Stations Pressure Air Temp Water Temp Dewpoint Dewpoint Depression Visibility Wind Speed Wind Dir Waves Ship Positions

Pine Galaxy

Last reported at 2014-Dec-20 00:33 UTC. Time now 2014-Dec-20 00:53 UTC.
Position N 49°17' W 123°04'.

Length 147 m; draft 5.1 m.

Type: Tanker. MMSI: 311772000.

Date/timePositionNaut miles runAvg speedWind from/ knotsBaromVisibWave heightAir tempDewpointWater temp
2014-Dec-20 00:33N 49°17' W 123°04'0 0.0
2014-Dec-19 23:33N 49°17' W 123°04'0 0.0
2014-Dec-19 22:33N 49°17' W 123°04'0 0.0
2014-Dec-19 21:33N 49°17' W 123°04'0 0.0
2014-Dec-19 20:33N 49°17' W 123°04'0 0.0
2014-Dec-19 19:33N 49°17' W 123°04'0 0.0
2014-Dec-19 18:33N 49°17' W 123°04'0 0.0
2014-Dec-19 17:33N 49°17' W 123°04'0 0.0
2014-Dec-19 16:33N 49°17' W 123°04'0 0.0
2014-Dec-19 15:33N 49°17' W 123°04'0 0.0
2014-Dec-19 14:33N 49°17' W 123°04'0 0.0
2014-Dec-19 13:33N 49°17' W 123°04'0 0.0
2014-Dec-19 12:33N 49°17' W 123°04'0 0.0
2014-Dec-19 11:33N 49°17' W 123°04'0 0.0
2014-Dec-19 10:33N 49°17' W 123°04'0 0.0
2014-Dec-19 09:33N 49°17' W 123°04'0 0.0
2014-Dec-19 08:33N 49°17' W 123°04'0 0.0
2014-Dec-19 07:33N 49°17' W 123°04'0 0.0
2014-Dec-19 06:33N 49°17' W 123°04'0 0.0
2014-Dec-19 05:33N 49°17' W 123°04'0 0.0
2014-Dec-19 04:33N 49°17' W 123°04'0 0.0
2014-Dec-19 03:33N 49°17' W 123°04'5 4.5
2014-Dec-19 02:33N 49°19' W 123°11'1 1.4
2014-Dec-19 01:32N 49°17' W 123°11'0 0.0
2014-Dec-19 00:32N 49°17' W 123°11'0 0.0
2014-Dec-18 23:32N 49°17' W 123°11'0 0.0
2014-Dec-18 22:29N 49°17' W 123°11'0 0.0
2014-Dec-18 21:32N 49°17' W 123°11'0 0.0
2014-Dec-18 20:32N 49°17' W 123°11'0 0.0
2014-Dec-18 19:32N 49°17' W 123°11'0 0.0
2014-Dec-18 18:32N 49°17' W 123°11'0 0.0
2014-Dec-18 17:32N 49°17' W 123°11'0 0.0
2014-Dec-18 16:32N 49°17' W 123°11'0 0.0
2014-Dec-18 15:32N 49°17' W 123°11'0 0.0
2014-Dec-18 14:32N 49°17' W 123°11'0 0.0
2014-Dec-18 13:32N 49°17' W 123°11'0 0.0
2014-Dec-18 12:32N 49°17' W 123°11'0 0.1
2014-Dec-18 11:32N 49°18' W 123°11'0 0.0
2014-Dec-18 10:32N 49°18' W 123°11'0 0.0
2014-Dec-18 09:32N 49°17' W 123°11'0 0.0
2014-Dec-18 08:29N 49°18' W 123°11'0 0.0
2014-Dec-18 07:32N 49°17' W 123°11'0 0.0
2014-Dec-18 06:32N 49°17' W 123°11'0 0.0
2014-Dec-18 05:32N 49°17' W 123°11'0 0.1
2014-Dec-18 04:32N 49°17' W 123°11'0 0.1
2014-Dec-18 03:32N 49°18' W 123°11'0 0.1
2014-Dec-18 02:32N 49°17' W 123°11'0 0.0
2014-Dec-18 01:32N 49°17' W 123°11'0 0.0
2014-Dec-18 00:32N 49°17' W 123°11'0 0.0
2014-Dec-17 23:32N 49°17' W 123°11'0 0.0
2014-Dec-17 22:32N 49°17' W 123°11'0 0.0
2014-Dec-17 21:32N 49°17' W 123°11'0 0.0
2014-Dec-17 20:32N 49°17' W 123°11'0 0.1
2014-Dec-17 19:32N 49°17' W 123°11'0 0.0
2014-Dec-17 18:32N 49°17' W 123°11'0 0.0
2014-Dec-17 17:32N 49°17' W 123°11'0 0.0
2014-Dec-17 16:32N 49°17' W 123°11'0 0.0
2014-Dec-17 15:32N 49°17' W 123°11'0 0.1
2014-Dec-17 14:32N 49°18' W 123°11'0 0.0
2014-Dec-17 13:32N 49°18' W 123°11'0 0.0
2014-Dec-17 12:29N 49°18' W 123°11'0 0.0
2014-Dec-17 11:32N 49°18' W 123°11'0 0.0
2014-Dec-17 10:32N 49°17' W 123°11'0 0.1
2014-Dec-17 09:32N 49°17' W 123°11'0 0.0
2014-Dec-17 08:32N 49°17' W 123°11'0 0.0
2014-Dec-17 07:32N 49°17' W 123°11'0 0.1
2014-Dec-17 06:32N 49°17' W 123°11'0 0.1
2014-Dec-17 05:32N 49°17' W 123°11'0 0.0
2014-Dec-17 04:32N 49°17' W 123°11'0 0.0
2014-Dec-17 03:32N 49°17' W 123°11'0 0.0
2014-Dec-17 02:29N 49°17' W 123°11'0 0.0
2014-Dec-17 01:32N 49°17' W 123°11'5 5.1
2014-Dec-17 00:33N 49°16' W 123°19'1312.6
2014-Dec-16 23:33N 49°03' W 123°19'1313.1
2014-Dec-16 22:33N 48°54' W 123°05'10 9.7
2014-Dec-16 21:33N 48°44' W 123°06'10 9.9
2014-Dec-16 20:33N 48°36' W 123°13'1312.5
2014-Dec-16 19:33N 48°23' W 123°14'7 7.1
2014-Dec-16 18:33N 48°20' W 123°24'6 6.2
2014-Dec-16 17:32N 48°14' W 123°28'1010.3
2014-Dec-16 16:33N 48°13' W 123°43'8 8.4
2014-Dec-16 15:33N 48°14' W 123°56'1111.4
2014-Dec-16 14:33N 48°18' W 124°11'1212.2
2014-Dec-16 13:33N 48°24' W 124°28'1212.4
2014-Dec-16 12:33N 48°28' W 124°45'1211.3
2014-Dec-16 11:30N 48°29' W 125°03'1010.0
2014-Dec-16 10:33N 48°31' W 125°17'1010.1
2014-Dec-16 09:33N 48°38' W 125°27'1010.0
2014-Dec-16 08:33N 48°46' W 125°36'9 9.4
2014-Dec-16 07:33N 48°54' W 125°45'10 9.5
2014-Dec-16 06:33N 49°00' W 125°55'9 8.7
2014-Dec-16 05:33N 49°04' W 126°07'9 8.6
2014-Dec-16 04:33N 49°04' W 126°20'7 6.7
2014-Dec-16 03:31N 49°04' W 126°31'6 5.1
2014-Dec-16 02:26N 49°04' W 126°39'10 4.3
2014-Dec-16 00:06N 49°03' W 126°54'2 2.7
2014-Dec-15 23:32N 49°03' W 126°56'9 6.9
2014-Dec-15 22:10N 48°57' W 126°46'610.3
2014-Dec-15 21:33N 48°52' W 126°40'1110.8
2014-Dec-15 20:33N 48°44' W 126°29'1110.8
2014-Dec-15 19:31N 48°33' W 126°23'1010.3
2014-Dec-15 18:31N 48°24' W 126°18'  
2014-Dec-13 09:13N 38°18' W 124°21'6 9.1
2014-Dec-13 08:32N 38°14' W 124°16'9 9.4
2014-Dec-13 07:33N 38°07' W 124°08'10 9.7
2014-Dec-13 06:33N 37°59' W 124°00'1010.0
2014-Dec-13 05:33N 37°52' W 123°52'1110.3
2014-Dec-13 04:28N 37°43' W 123°43'18 8.7
2014-Dec-13 02:26N 37°35' W 123°24'8 9.1
2014-Dec-13 01:33N 37°34' W 123°13'9 8.7
2014-Dec-13 00:33N 37°35' W 123°03'9 9.3
2014-Dec-12 23:33N 37°40' W 122°53'9 9.1
2014-Dec-12 22:34N 37°45' W 122°43'9 8.8
2014-Dec-12 21:33N 37°48' W 122°33'10 9.7
2014-Dec-12 20:33N 37°55' W 122°25'3 2.6
2014-Dec-12 19:33N 37°55' W 122°22'0 0.0
2014-Dec-12 18:33N 37°55' W 122°22'0 0.0
2014-Dec-12 17:33N 37°55' W 122°22'0 0.0
2014-Dec-12 16:33N 37°55' W 122°22'0 0.0
2014-Dec-12 15:33N 37°55' W 122°22'0 0.0
2014-Dec-12 14:33N 37°55' W 122°22'0 0.0
2014-Dec-12 13:33N 37°55' W 122°22'0 0.0
2014-Dec-12 12:33N 37°55' W 122°22'0 0.0
2014-Dec-12 11:33N 37°55' W 122°22'0 0.0
2014-Dec-12 10:33N 37°55' W 122°22'0 0.0
2014-Dec-12 09:33N 37°55' W 122°22'0 0.0
2014-Dec-12 08:33N 37°55' W 122°22'0 0.0
2014-Dec-12 07:33N 37°55' W 122°22'0 0.0
2014-Dec-12 06:33N 37°55' W 122°22'1 0.8
2014-Dec-12 05:33N 37°54' W 122°22'4 3.9
2014-Dec-12 04:33N 37°51' W 122°24'5 5.1
2014-Dec-12 03:32N 37°46' W 122°21'0 0.0
2014-Dec-12 02:32N 37°46' W 122°21'0 0.0
2014-Dec-12 01:32N 37°46' W 122°21'0 0.0
2014-Dec-12 00:32N 37°46' W 122°21'0 0.0
2014-Dec-11 23:32N 37°46' W 122°21'0 0.0
2014-Dec-11 22:32N 37°46' W 122°21'0 0.1
2014-Dec-11 21:32N 37°46' W 122°21'0 0.0
2014-Dec-11 20:32N 37°46' W 122°21'0 0.0
2014-Dec-11 19:32N 37°46' W 122°21'0 0.1
2014-Dec-11 18:32N 37°46' W 122°21'0 0.1
2014-Dec-11 17:32N 37°46' W 122°21'0 0.0
2014-Dec-11 16:32N 37°46' W 122°21'0 0.0
2014-Dec-11 15:32N 37°46' W 122°21'0 0.0
2014-Dec-11 14:32N 37°46' W 122°21'0 0.0
2014-Dec-11 13:32N 37°46' W 122°21'0 0.0
2014-Dec-11 12:33N 37°46' W 122°21'0 0.0
2014-Dec-11 11:33N 37°46' W 122°21'0 0.1
2014-Dec-11 10:33N 37°46' W 122°21'4 4.3
2014-Dec-11 09:33N 37°50' W 122°24'5 4.7
2014-Dec-11 08:33N 37°54' W 122°22'1 0.7
2014-Dec-11 07:31N 37°55' W 122°22'0 0.0
2014-Dec-11 06:28N 37°55' W 122°22'0 0.0
2014-Dec-11 05:31N 37°55' W 122°22'0 0.0
2014-Dec-11 04:31N 37°55' W 122°22'0 0.0
2014-Dec-11 03:31N 37°55' W 122°22'0 0.0
2014-Dec-11 02:28N 37°55' W 122°22'0 0.0
2014-Dec-11 01:31N 37°55' W 122°22'0 0.0
2014-Dec-11 00:31N 37°55' W 122°22'0 0.0
2014-Dec-10 23:31N 37°55' W 122°22'0 0.0
2014-Dec-10 22:31N 37°55' W 122°22'0 0.0
2014-Dec-10 21:31N 37°55' W 122°22'0 0.0
2014-Dec-10 20:31N 37°55' W 122°22'0 0.0
2014-Dec-10 19:31N 37°55' W 122°22'0 0.0
2014-Dec-10 18:28N 37°55' W 122°22'0 0.0
2014-Dec-10 17:31N 37°55' W 122°22'0 0.0
2014-Dec-10 16:31N 37°55' W 122°22'0 0.0
2014-Dec-10 15:31N 37°55' W 122°22'0 0.0
2014-Dec-10 14:28N 37°55' W 122°22'0 0.0
2014-Dec-10 13:31N 37°55' W 122°22'0 0.0
2014-Dec-10 12:31N 37°55' W 122°22'0 0.0
2014-Dec-10 11:31N 37°55' W 122°22'0 0.0
2014-Dec-10 10:31N 37°55' W 122°22'0 0.0
2014-Dec-10 09:31N 37°55' W 122°22'0 0.0
2014-Dec-10 08:31N 37°55' W 122°22'0 0.0
2014-Dec-10 07:31N 37°55' W 122°22'0 0.0
2014-Dec-10 06:31N 37°55' W 122°22'0 0.0
2014-Dec-10 05:31N 37°55' W 122°22'0 0.0
2014-Dec-10 04:31N 37°55' W 122°22'0 0.0
2014-Dec-10 03:31N 37°55' W 122°22'0 0.0
2014-Dec-10 02:31N 37°55' W 122°22'0 0.0
2014-Dec-10 01:31N 37°55' W 122°22'  

Dump ship's entire track history